createdAt,value
2023-01-26T00:00:51.339Z,21.2
2023-01-26T00:02:08.444Z,20
2023-01-26T00:03:25.550Z,19.5
2023-01-26T00:04:42.656Z,20.6
2023-01-26T00:05:58.778Z,21.1
2023-01-26T00:07:15.883Z,21.5
2023-01-26T00:08:32.989Z,20.3
2023-01-26T00:09:50.095Z,20.4
2023-01-26T00:11:07.200Z,19.8
2023-01-26T00:12:24.306Z,21.4
2023-01-26T00:13:41.412Z,21.2
2023-01-26T00:14:57.539Z,21
2023-01-26T00:16:13.661Z,19.8
2023-01-26T00:17:30.766Z,19.8
2023-01-26T00:18:46.893Z,20.6
2023-01-26T00:20:03.015Z,20.9
2023-01-26T00:21:20.121Z,20
2023-01-26T00:22:37.226Z,20.4
2023-01-26T00:23:54.332Z,20.4
2023-01-26T00:25:11.438Z,21.3
2023-01-26T00:26:28.544Z,21.4
2023-01-26T00:27:45.649Z,21.1
2023-01-26T00:29:02.755Z,20.9
2023-01-26T00:30:19.861Z,20.4
2023-01-26T00:31:36.967Z,21
2023-01-26T00:32:54.072Z,21
2023-01-26T00:34:11.178Z,20.5
2023-01-26T00:35:28.284Z,20.2
2023-01-26T00:36:44.406Z,20.7
2023-01-26T00:38:01.512Z,21
2023-01-26T00:39:18.618Z,22.3
2023-01-26T00:40:35.723Z,20.3
2023-01-26T00:41:52.829Z,20.6
2023-01-26T00:43:09.936Z,20.7
2023-01-26T00:44:27.039Z,20.3
2023-01-26T00:45:43.166Z,22.1
2023-01-26T00:46:59.288Z,20.1
2023-01-26T00:48:16.394Z,20.5
2023-01-26T00:49:32.521Z,20.4
2023-01-26T00:50:48.643Z,19.4
2023-01-26T00:52:05.749Z,19.7
2023-01-26T00:53:22.856Z,21.7
2023-01-26T00:54:39.961Z,21.1
2023-01-26T00:55:57.067Z,19.8
2023-01-26T00:57:14.173Z,21.7
2023-01-26T00:58:31.279Z,21.8
2023-01-26T00:59:48.384Z,20.8
2023-01-26T01:01:05.490Z,22.8
2023-01-26T01:02:22.596Z,22.9
2023-01-26T01:03:39.702Z,21.2
2023-01-26T01:04:56.808Z,23.4
2023-01-26T01:06:13.914Z,19.7
2023-01-26T01:07:30.035Z,21.8
2023-01-26T01:08:47.141Z,23.2
2023-01-26T01:10:04.247Z,20.5
2023-01-26T01:11:21.353Z,22.4
2023-01-26T01:12:38.458Z,23.3
2023-01-26T01:13:55.564Z,24
2023-01-26T01:15:12.670Z,21.5
2023-01-26T01:16:28.797Z,21.9
2023-01-26T01:17:44.919Z,23.8
2023-01-26T01:19:02.025Z,21.5
2023-01-26T01:20:19.130Z,21.6
2023-01-26T01:21:35.257Z,23.7
2023-01-26T01:22:51.379Z,24.7
2023-01-26T01:24:08.485Z,21.8
2023-01-26T01:25:25.590Z,22.1
2023-01-26T01:26:42.696Z,23.7
2023-01-26T01:27:59.802Z,21.7
2023-01-26T01:29:16.907Z,21.5
2023-01-26T01:30:34.014Z,21.8
2023-01-26T01:31:51.119Z,23.2
2023-01-26T01:33:08.225Z,21.4
2023-01-26T01:34:25.331Z,23.5
2023-01-26T01:35:42.437Z,23.9
2023-01-26T01:36:59.542Z,23.2
2023-01-26T01:39:33.754Z,24
2023-01-26T01:40:49.876Z,24.5
2023-01-26T01:42:06.982Z,23.4
2023-01-26T01:43:24.087Z,23.5
2023-01-26T01:44:41.193Z,23.2
2023-01-26T01:45:58.299Z,23.1
2023-01-26T01:47:15.404Z,23.5
2023-01-26T01:48:32.510Z,24.5
2023-01-26T01:49:48.637Z,23.8
2023-01-26T01:51:04.759Z,24
2023-01-26T01:52:20.886Z,23.9
2023-01-26T01:53:37.007Z,25
2023-01-26T01:54:54.113Z,24.6
2023-01-26T01:56:11.218Z,23.5
2023-01-26T01:57:28.324Z,24.5
2023-01-26T01:58:45.430Z,24.1
2023-01-26T02:00:02.536Z,24.3
2023-01-26T02:01:19.641Z,24
2023-01-26T02:02:36.747Z,23.5
2023-01-26T02:03:53.852Z,24.3
2023-01-26T02:05:10.958Z,23.2
2023-01-26T02:06:28.064Z,22.5
2023-01-26T02:07:45.170Z,23.4
2023-01-26T02:09:01.291Z,23.2
2023-01-26T02:10:18.397Z,23.5
2023-01-26T02:11:35.503Z,24.7
2023-01-26T02:12:52.608Z,23.4
2023-01-26T02:14:09.714Z,23.4
2023-01-26T02:15:26.820Z,22.7
2023-01-26T02:16:43.925Z,24
2023-01-26T02:18:01.031Z,24.1
2023-01-26T02:19:17.158Z,24.3
2023-01-26T02:20:33.280Z,24.3
2023-01-26T02:21:50.386Z,24.7
2023-01-26T02:23:07.491Z,24.3
2023-01-26T02:25:41.702Z,23.3
2023-01-26T02:26:57.829Z,25.6
2023-01-26T02:28:13.951Z,25.3
2023-01-26T02:29:31.056Z,27.2
2023-01-26T02:30:48.162Z,23.9
2023-01-26T02:32:05.267Z,26.5
2023-01-26T02:33:22.373Z,25.2
2023-01-26T02:34:39.479Z,22.1
2023-01-26T02:35:56.584Z,26.3
2023-01-26T02:37:13.690Z,25
2023-01-26T02:38:30.796Z,22.7
2023-01-26T02:39:47.901Z,23.5
2023-01-26T02:41:05.007Z,21.9
2023-01-26T02:42:22.113Z,23.4
2023-01-26T02:43:39.218Z,23.2
2023-01-26T02:44:55.340Z,22.8
2023-01-26T02:46:12.446Z,24.1
2023-01-26T02:47:29.552Z,23.3
2023-01-26T02:48:46.657Z,25.6
2023-01-26T02:50:03.763Z,23.1
2023-01-26T02:51:20.868Z,24.4
2023-01-26T02:52:37.974Z,25.9
2023-01-26T02:53:54.101Z,23.6
2023-01-26T02:55:10.222Z,24.5
2023-01-26T02:56:26.349Z,24.1
2023-01-26T02:57:42.470Z,24.2
2023-01-26T02:58:59.576Z,24.4
2023-01-26T03:00:16.682Z,24.6
2023-01-26T03:01:33.788Z,24.3
2023-01-26T03:02:50.893Z,24.1
2023-01-26T03:04:07.999Z,24.3
2023-01-26T03:05:25.104Z,23.5
2023-01-26T03:06:42.210Z,23.4
2023-01-26T03:07:59.316Z,24.8
2023-01-26T03:09:16.421Z,23.9
2023-01-26T03:10:33.527Z,23.6
2023-01-26T03:11:50.632Z,24.8
2023-01-26T03:13:07.738Z,24.5
2023-01-26T03:14:23.859Z,24.2
2023-01-26T03:15:40.965Z,24.3
2023-01-26T03:16:58.070Z,25.7
2023-01-26T03:19:32.281Z,26
2023-01-26T03:20:49.387Z,25.6
2023-01-26T03:22:06.492Z,24.7
2023-01-26T03:23:23.598Z,25.4
2023-01-26T03:24:39.725Z,26.2
2023-01-26T03:25:55.847Z,24.5
2023-01-26T03:27:11.974Z,25.1
2023-01-26T03:28:28.095Z,25.1
2023-01-26T03:29:45.201Z,25.7
2023-01-26T03:31:02.306Z,25.6
2023-01-26T03:32:19.412Z,24.8
2023-01-26T03:33:36.518Z,25.6
2023-01-26T03:34:53.623Z,25
2023-01-26T03:36:10.729Z,25.6
2023-01-26T03:37:27.834Z,26.5
2023-01-26T03:38:44.940Z,25.8
2023-01-26T03:40:02.046Z,25.7
2023-01-26T03:41:19.152Z,27
2023-01-26T03:42:36.257Z,25.5
2023-01-26T03:43:53.363Z,26.3
2023-01-26T03:45:09.484Z,26.2
2023-01-26T03:46:26.590Z,26.7
2023-01-26T03:47:43.695Z,25.6
2023-01-26T03:49:00.801Z,24.8
2023-01-26T03:50:17.907Z,26.2
2023-01-26T03:51:35.013Z,26.5
2023-01-26T03:52:52.118Z,24.5
2023-01-26T03:54:08.245Z,25.8
2023-01-26T03:55:24.367Z,24.4
2023-01-26T03:56:40.494Z,24.7
2023-01-26T03:57:56.615Z,24.6
2023-01-26T03:59:13.721Z,26.1
2023-01-26T04:00:30.826Z,25.1
2023-01-26T04:01:47.932Z,25.4
2023-01-26T04:03:05.037Z,25.2
2023-01-26T04:04:22.142Z,25.4
2023-01-26T04:05:39.248Z,25.8
2023-01-26T04:06:56.354Z,26.8
2023-01-26T04:08:13.458Z,24.8
2023-01-26T04:09:30.563Z,25.1
2023-01-26T04:10:47.668Z,28.2
2023-01-26T04:12:04.774Z,26
2023-01-26T04:13:21.880Z,26.7
2023-01-26T04:14:38.001Z,26.7
2023-01-26T04:15:55.107Z,26.6
2023-01-26T04:17:12.213Z,28.3
2023-01-26T04:18:29.318Z,27
2023-01-26T04:19:46.425Z,26.9
2023-01-26T04:21:03.531Z,26.4
2023-01-26T04:22:20.636Z,26.7
2023-01-26T04:23:37.742Z,28.7
2023-01-26T04:24:54.848Z,27.1
2023-01-26T04:26:10.974Z,28.6
2023-01-26T04:27:27.096Z,27.3
2023-01-26T04:28:43.223Z,28.1
2023-01-26T04:29:59.345Z,29
2023-01-26T04:31:16.450Z,28
2023-01-26T04:32:33.556Z,28.4
2023-01-26T04:33:50.662Z,30.3
2023-01-26T04:35:07.768Z,27.3
2023-01-26T04:36:24.873Z,27.5
2023-01-26T04:37:41.979Z,28.2
2023-01-26T04:38:59.084Z,28.6
2023-01-26T04:40:16.190Z,29
2023-01-26T04:41:33.296Z,27.9
2023-01-26T04:42:50.402Z,29
2023-01-26T04:44:07.507Z,29.3
2023-01-26T04:45:24.613Z,29.5
2023-01-26T04:46:40.734Z,29.4
2023-01-26T04:47:57.840Z,26.8
2023-01-26T04:49:14.946Z,29.1
2023-01-26T04:50:32.051Z,28.4
2023-01-26T04:51:49.157Z,31
2023-01-26T04:53:06.263Z,31.3
2023-01-26T04:54:23.369Z,32.3
2023-01-26T04:55:39.496Z,31.6
2023-01-26T04:56:55.617Z,31.1
2023-01-26T04:58:12.723Z,31.7
2023-01-26T04:59:28.850Z,31.8
2023-01-26T05:00:44.971Z,30.3
2023-01-26T05:02:02.076Z,30.6
2023-01-26T05:03:19.182Z,30.6
2023-01-26T05:04:36.287Z,31.7
2023-01-26T05:05:53.393Z,30.4
2023-01-26T05:07:10.498Z,29.5
2023-01-26T05:08:27.604Z,29.2
2023-01-26T05:09:44.710Z,28.8
2023-01-26T05:11:01.815Z,31.4
2023-01-26T05:12:18.921Z,30.4
2023-01-26T05:13:36.027Z,28.3
2023-01-26T05:14:53.132Z,29.9
2023-01-26T05:16:10.238Z,30
2023-01-26T05:17:26.359Z,29.4
2023-01-26T05:18:43.465Z,29.9
2023-01-26T05:20:00.570Z,29.2
2023-01-26T05:21:17.677Z,28.2
2023-01-26T05:22:34.782Z,29.2
2023-01-26T05:23:51.888Z,28.5
2023-01-26T05:25:08.993Z,28.4
2023-01-26T05:26:25.120Z,30.5
2023-01-26T05:27:41.241Z,28.5
2023-01-26T05:30:14.474Z,29.1
2023-01-26T05:31:30.600Z,27.7
2023-01-26T05:32:46.722Z,28.3
2023-01-26T05:34:03.827Z,27.4
2023-01-26T05:35:20.933Z,27.4
2023-01-26T05:36:38.038Z,29.5
2023-01-26T05:37:55.144Z,27.2
2023-01-26T05:39:12.249Z,27.6
2023-01-26T05:40:29.355Z,28.1
2023-01-26T05:41:46.460Z,28.7
2023-01-26T05:43:03.566Z,26.5
2023-01-26T05:44:20.671Z,26.6
2023-01-26T05:45:37.777Z,29.7
2023-01-26T05:46:54.882Z,29.1
2023-01-26T05:48:11.988Z,28.2
2023-01-26T05:49:28.109Z,27.2
2023-01-26T05:50:45.215Z,29.3
2023-01-26T05:52:02.320Z,28.8
2023-01-26T05:53:19.426Z,29
2023-01-26T05:54:36.531Z,28.6
2023-01-26T05:55:53.636Z,28.6
2023-01-26T05:57:10.742Z,30.1
2023-01-26T05:58:26.869Z,29.8
2023-01-26T05:59:42.990Z,28.5
2023-01-26T06:00:59.117Z,29
2023-01-26T06:02:15.238Z,29
2023-01-26T06:03:32.344Z,28.4
2023-01-26T06:04:49.450Z,27.5
2023-01-26T06:06:06.555Z,29.3
2023-01-26T06:07:23.660Z,28.6
2023-01-26T06:08:40.767Z,28.2
2023-01-26T06:09:57.872Z,25.7
2023-01-26T06:11:14.978Z,25.5
2023-01-26T06:12:32.083Z,27.2
2023-01-26T06:13:49.189Z,27.4
2023-01-26T06:15:06.295Z,27.5
2023-01-26T06:16:23.400Z,27.5
2023-01-26T06:17:40.505Z,27.5
2023-01-26T06:18:56.627Z,26.7
2023-01-26T06:20:13.732Z,26.5
2023-01-26T06:21:30.838Z,27.8
2023-01-26T06:22:47.943Z,26.1
2023-01-26T06:24:05.049Z,27.1
2023-01-26T06:25:22.154Z,27.5
2023-01-26T06:26:38.276Z,26.6
2023-01-26T06:27:54.402Z,26.5
2023-01-26T06:29:10.524Z,26.3
2023-01-26T06:30:26.651Z,27.3
2023-01-26T06:31:42.772Z,27.3
2023-01-26T06:32:59.878Z,27.1
2023-01-26T06:34:16.984Z,26.6
2023-01-26T06:35:34.089Z,26.3
2023-01-26T06:36:51.195Z,25.7
2023-01-26T06:39:25.406Z,26.9
2023-01-26T06:40:42.511Z,27.1
2023-01-26T06:41:59.617Z,26.6
2023-01-26T06:43:16.723Z,25.9
2023-01-26T06:44:33.829Z,26.5
2023-01-26T06:47:08.040Z,25.9
2023-01-26T06:48:24.167Z,26.1
2023-01-26T06:49:40.288Z,27
2023-01-26T06:50:57.393Z,28.5
2023-01-26T06:52:14.499Z,27
2023-01-26T06:54:48.710Z,26.9
2023-01-26T06:56:05.815Z,27.1
2023-01-26T06:57:22.921Z,27.4
2023-01-26T06:58:40.026Z,27.9
2023-01-26T06:59:57.132Z,27.8
2023-01-26T07:01:14.237Z,26.5
2023-01-26T07:02:31.342Z,26.4
2023-01-26T07:03:48.448Z,25.6
2023-01-26T07:05:05.553Z,25.7
2023-01-26T07:06:21.675Z,25.8
2023-01-26T07:07:38.780Z,25.4
2023-01-26T07:08:55.886Z,25.4
2023-01-26T07:10:12.989Z,25.7
2023-01-26T07:11:30.094Z,26.2
2023-01-26T07:12:47.200Z,25.6
2023-01-26T07:14:04.305Z,28.5
2023-01-26T07:15:21.411Z,27.7
2023-01-26T07:16:37.537Z,26.2
2023-01-26T07:17:53.659Z,27.4
2023-01-26T07:19:10.764Z,28.1
2023-01-26T07:20:27.870Z,27.5
2023-01-26T07:21:43.996Z,29.7
2023-01-26T07:23:00.118Z,29.7
2023-01-26T07:24:17.223Z,30.3
2023-01-26T07:25:34.329Z,29.8
2023-01-26T07:26:51.434Z,29.6
2023-01-26T07:28:08.540Z,30.4
2023-01-26T07:29:25.645Z,29.7
2023-01-26T07:30:42.751Z,29.2
2023-01-26T07:31:59.856Z,29
2023-01-26T07:33:16.962Z,30.2
2023-01-26T07:34:34.067Z,28.2
2023-01-26T07:35:51.173Z,30.1
2023-01-26T07:37:08.278Z,29.5
2023-01-26T07:38:25.384Z,29
2023-01-26T07:39:41.505Z,29.9
2023-01-26T07:40:58.610Z,30.3
2023-01-26T07:42:15.716Z,28.7
2023-01-26T07:43:32.821Z,28.6
2023-01-26T07:44:49.927Z,29.5
2023-01-26T07:46:07.033Z,32.3
2023-01-26T07:47:24.138Z,28.5
2023-01-26T07:48:41.243Z,28
2023-01-26T07:49:58.347Z,30.9
2023-01-26T07:51:15.452Z,29
2023-01-26T07:52:31.579Z,29.2
2023-01-26T07:53:47.700Z,29.1
2023-01-26T07:55:04.806Z,29.8
2023-01-26T07:56:20.932Z,28.4
2023-01-26T07:57:37.054Z,27.9
2023-01-26T07:58:54.159Z,28.7
2023-01-26T08:00:11.265Z,28
2023-01-26T08:01:28.370Z,28.7
2023-01-26T08:02:45.475Z,27.8
2023-01-26T08:04:02.581Z,25.7
2023-01-26T08:05:19.686Z,25.3
2023-01-26T08:06:36.791Z,26.8
2023-01-26T08:07:53.898Z,26.1
2023-01-26T08:09:11.003Z,26.5
2023-01-26T08:10:28.108Z,24.8
2023-01-26T08:11:45.214Z,23.8
2023-01-26T08:13:02.319Z,26.3
2023-01-26T08:14:18.440Z,25.4
2023-01-26T08:15:35.546Z,24.6
2023-01-26T08:16:52.651Z,25.8
2023-01-26T08:18:09.756Z,25
2023-01-26T08:19:26.861Z,25.4
2023-01-26T08:20:43.966Z,25.6
2023-01-26T08:22:01.072Z,25.5
2023-01-26T08:23:17.199Z,24.8
2023-01-26T08:24:33.320Z,25.9
2023-01-26T08:25:50.425Z,25.9
2023-01-26T08:27:07.531Z,25.4
2023-01-26T08:28:24.636Z,25.3
2023-01-26T08:29:41.741Z,26
2023-01-26T08:30:58.846Z,23.5
2023-01-26T08:32:15.951Z,24.6
2023-01-26T08:33:33.057Z,24.3
2023-01-26T08:34:50.162Z,24.6
2023-01-26T08:36:07.267Z,26
2023-01-26T08:37:24.373Z,24.9
2023-01-26T08:38:41.478Z,27.5
2023-01-26T08:39:58.583Z,26.6
2023-01-26T08:41:14.704Z,24.7
2023-01-26T08:42:31.810Z,27.7
2023-01-26T08:43:48.915Z,26.4
2023-01-26T08:45:06.020Z,25.3
2023-01-26T08:46:23.126Z,26.7
2023-01-26T08:47:40.231Z,26.2
2023-01-26T08:48:57.336Z,26.2
2023-01-26T08:50:13.463Z,26.7
2023-01-26T08:51:29.584Z,26.8
2023-01-26T08:52:45.711Z,25.7
2023-01-26T08:54:01.832Z,27.5
2023-01-26T08:55:18.938Z,26.4
2023-01-26T08:56:36.043Z,28
2023-01-26T08:57:53.148Z,26.1
2023-01-26T08:59:10.254Z,28.2
2023-01-26T09:00:27.359Z,26.9
2023-01-26T09:01:44.465Z,24.1
2023-01-26T09:03:01.570Z,26.8
2023-01-26T09:04:18.676Z,25.4
2023-01-26T09:05:35.781Z,25.8
2023-01-26T09:06:52.887Z,27.6
2023-01-26T09:08:09.992Z,27.2
2023-01-26T09:09:27.097Z,28.3
2023-01-26T09:10:43.219Z,27.6
2023-01-26T09:12:00.324Z,26.8
2023-01-26T09:13:17.430Z,28
2023-01-26T09:14:34.535Z,28.1
2023-01-26T09:15:51.641Z,25.8
2023-01-26T09:17:08.746Z,25.3
2023-01-26T09:18:25.852Z,27
2023-01-26T09:19:41.978Z,25.2
2023-01-26T09:20:58.100Z,25.2
2023-01-26T09:22:14.227Z,25.8
2023-01-26T09:23:30.348Z,26
2023-01-26T09:24:47.453Z,24.1
2023-01-26T09:26:04.559Z,25.8
2023-01-26T09:27:21.664Z,26.4
2023-01-26T09:28:38.770Z,25.4
2023-01-26T09:29:55.875Z,25.9
2023-01-26T09:31:12.980Z,26.3
2023-01-26T09:32:30.086Z,26.5
2023-01-26T09:33:47.191Z,26.9
2023-01-26T09:35:04.297Z,25.8
2023-01-26T09:36:21.402Z,25.4
2023-01-26T09:37:38.507Z,25.4
2023-01-26T09:38:55.613Z,25.1
2023-01-26T09:40:11.734Z,25.4
2023-01-26T09:41:28.841Z,24.9
2023-01-26T09:42:45.946Z,24.3
2023-01-26T09:44:03.051Z,25.1
2023-01-26T09:45:20.157Z,25.3
2023-01-26T09:46:37.262Z,23.9
2023-01-26T09:47:54.367Z,26.3
2023-01-26T09:49:10.494Z,25.2
2023-01-26T09:50:26.616Z,23.1
2023-01-26T09:51:42.742Z,25.6
2023-01-26T09:52:58.864Z,22.9
2023-01-26T09:54:15.970Z,21.7
2023-01-26T09:55:33.076Z,23.1
2023-01-26T09:56:50.181Z,23.3
2023-01-26T09:59:24.392Z,23.9
2023-01-26T10:00:41.497Z,22.7
2023-01-26T10:01:58.602Z,22.5
2023-01-26T10:03:15.708Z,21.9
2023-01-26T10:04:32.813Z,23
2023-01-26T10:05:49.918Z,21.9
2023-01-26T10:07:07.024Z,21.4
2023-01-26T10:08:24.129Z,22.1
2023-01-26T10:09:40.250Z,23.3
2023-01-26T10:10:57.355Z,23.6
2023-01-26T10:12:14.461Z,23.8
2023-01-26T10:13:31.567Z,23.6
2023-01-26T10:14:48.672Z,22
2023-01-26T10:16:05.777Z,21.1
2023-01-26T10:17:22.883Z,22.8
2023-01-26T10:18:39.988Z,21.2
2023-01-26T10:19:57.093Z,21
2023-01-26T10:21:14.198Z,19.4
2023-01-26T10:22:31.303Z,22
2023-01-26T10:23:48.408Z,21.7
2023-01-26T10:25:05.513Z,20.5
2023-01-26T10:26:21.635Z,20
2023-01-26T10:27:38.740Z,20.5
2023-01-26T10:28:55.845Z,21.5
2023-01-26T10:30:12.950Z,21.1
2023-01-26T10:31:30.055Z,20
2023-01-26T10:32:47.160Z,20.6
2023-01-26T10:34:04.265Z,19.8
2023-01-26T10:35:20.392Z,23.1
2023-01-26T10:36:36.513Z,23.6
2023-01-26T10:37:52.640Z,21.8
2023-01-26T10:39:08.761Z,22.6
2023-01-26T10:40:25.866Z,22
2023-01-26T10:41:42.971Z,23.2
2023-01-26T10:43:00.076Z,23.2
2023-01-26T10:44:16.197Z,24.5
2023-01-26T10:45:33.303Z,26.4
2023-01-26T10:46:50.408Z,23.1
2023-01-26T10:48:07.513Z,23.4
2023-01-26T10:49:24.618Z,23.5
2023-01-26T10:50:41.723Z,24.1
2023-01-26T10:51:58.828Z,23.6
2023-01-26T10:53:15.933Z,24.1
2023-01-26T10:54:33.038Z,25.5
2023-01-26T10:55:50.144Z,25.7
2023-01-26T10:57:07.249Z,25.7
2023-01-26T10:58:24.354Z,25.6
2023-01-26T10:59:41.459Z,25.3
2023-01-26T11:00:57.580Z,26.2
2023-01-26T11:02:14.686Z,25.6
2023-01-26T11:03:31.791Z,26.8
2023-01-26T11:04:47.917Z,26.8
2023-01-26T11:06:04.039Z,26.2
2023-01-26T11:07:21.144Z,25.8
2023-01-26T11:08:37.270Z,26.4
2023-01-26T11:09:53.391Z,26.1
2023-01-26T11:11:10.496Z,26.6
2023-01-26T11:12:27.602Z,26.1
2023-01-26T11:13:44.707Z,25.4
2023-01-26T11:15:01.812Z,25.2
2023-01-26T11:16:18.917Z,25
2023-01-26T11:17:36.022Z,26.3
2023-01-26T11:18:53.127Z,24.6
2023-01-26T11:20:10.232Z,24.8
2023-01-26T11:21:27.337Z,25.3
2023-01-26T11:22:44.443Z,25.5
2023-01-26T11:24:01.548Z,25
2023-01-26T11:25:18.653Z,26
2023-01-26T11:26:34.774Z,25.7
2023-01-26T11:27:51.879Z,28
2023-01-26T11:29:08.985Z,25.2
2023-01-26T11:30:26.090Z,28.3
2023-01-26T11:31:43.195Z,25.4
2023-01-26T11:33:00.300Z,26.9
2023-01-26T11:34:17.405Z,26.7
2023-01-26T11:35:33.532Z,26.4
2023-01-26T11:36:49.653Z,26.7
2023-01-26T11:38:05.779Z,27
2023-01-26T11:39:21.900Z,26.5
2023-01-26T11:40:39.005Z,26.9
2023-01-26T11:41:56.110Z,28.6
2023-01-26T11:43:13.216Z,26
2023-01-26T11:44:30.321Z,25.2
2023-01-26T11:47:04.531Z,25.5
2023-01-26T11:48:21.636Z,22.8
2023-01-26T11:49:38.741Z,23.8
2023-01-26T11:50:55.846Z,20.4
2023-01-26T11:52:12.951Z,22
2023-01-26T11:53:30.055Z,22.7
2023-01-26T11:54:47.160Z,21.6
2023-01-26T11:56:03.281Z,21.5
2023-01-26T11:57:20.386Z,22.4
2023-01-26T11:58:37.491Z,19.8
2023-01-26T11:59:54.596Z,22
2023-01-26T12:01:11.701Z,18
2023-01-26T12:02:28.806Z,19.6
2023-01-26T12:03:45.911Z,18.8
2023-01-26T12:05:03.016Z,17.5
2023-01-26T12:06:19.143Z,17.8
2023-01-26T12:07:35.264Z,17.5
2023-01-26T12:08:51.390Z,17.7
2023-01-26T12:10:07.511Z,17.6
2023-01-26T12:11:24.616Z,16.8
2023-01-26T12:12:41.720Z,16.3
2023-01-26T12:13:58.825Z,17
2023-01-26T12:15:15.930Z,17.7
2023-01-26T12:16:33.035Z,18.4
2023-01-26T12:17:50.140Z,18.2
2023-01-26T12:19:07.245Z,18
2023-01-26T12:20:24.351Z,18.4
2023-01-26T12:21:41.456Z,17.8
2023-01-26T12:22:58.560Z,18.5
2023-01-26T12:24:15.665Z,15.4
2023-01-26T12:25:32.770Z,16.6
2023-01-26T12:26:48.891Z,19.2
2023-01-26T12:28:05.997Z,20
2023-01-26T12:29:23.102Z,18.2
2023-01-26T12:30:40.207Z,20.5
2023-01-26T12:31:57.311Z,17.5
2023-01-26T12:33:14.416Z,18
2023-01-26T12:34:31.521Z,17.4
2023-01-26T12:35:47.647Z,16.6
2023-01-26T12:37:03.768Z,18.6
2023-01-26T12:38:20.873Z,17.3
2023-01-26T12:39:37.978Z,17
2023-01-26T12:40:55.084Z,19.3
2023-01-26T12:42:12.188Z,18.9
2023-01-26T12:43:29.293Z,17.5
2023-01-26T12:44:46.399Z,17.9
2023-01-26T12:46:03.504Z,18.9
2023-01-26T12:47:20.609Z,17
2023-01-26T12:48:37.714Z,17.3
2023-01-26T12:49:54.819Z,16.7
2023-01-26T12:51:11.924Z,20.9
2023-01-26T12:52:29.029Z,18.4
2023-01-26T12:53:45.150Z,17.6
2023-01-26T12:56:19.360Z,16
2023-01-26T12:57:36.465Z,16.5
2023-01-26T12:58:53.571Z,17.6
2023-01-26T13:00:10.676Z,17.3
2023-01-26T13:01:27.779Z,17.2
2023-01-26T13:02:44.885Z,16.3
2023-01-26T13:04:01.011Z,17.4
2023-01-26T13:05:17.132Z,16.9
2023-01-26T13:06:33.259Z,15.7
2023-01-26T13:07:49.380Z,15.8
2023-01-26T13:09:06.485Z,16.6
2023-01-26T13:10:23.591Z,17.1
2023-01-26T13:11:40.696Z,16.6
2023-01-26T13:12:57.801Z,16.3
2023-01-26T13:14:14.906Z,16.4
2023-01-26T13:15:32.011Z,16
2023-01-26T13:16:49.116Z,16.9
2023-01-26T13:18:06.221Z,14.9
2023-01-26T13:19:23.326Z,18
2023-01-26T13:20:40.431Z,15.2
2023-01-26T13:21:57.536Z,14.2
2023-01-26T13:23:14.642Z,15.6
2023-01-26T13:24:30.763Z,15.2
2023-01-26T13:25:47.868Z,15
2023-01-26T13:27:04.973Z,14
2023-01-26T13:28:22.079Z,16.1
2023-01-26T13:29:39.184Z,15.9
2023-01-26T13:30:56.289Z,18.2
2023-01-26T13:32:13.395Z,16.4
2023-01-26T13:33:29.521Z,13.9
2023-01-26T13:34:45.642Z,17
2023-01-26T13:36:01.769Z,16.9
2023-01-26T13:37:17.890Z,16.3
2023-01-26T13:38:34.995Z,15.5
2023-01-26T13:39:52.100Z,14.9
2023-01-26T13:41:09.205Z,15.4
2023-01-26T13:42:26.311Z,14.8
2023-01-26T13:43:43.417Z,13.9
2023-01-26T13:45:00.523Z,14
2023-01-26T13:46:17.628Z,13.2
2023-01-26T13:47:34.733Z,13.9
2023-01-26T13:48:51.838Z,13.5
2023-01-26T13:50:08.944Z,13.1
2023-01-26T13:51:26.049Z,12.7
2023-01-26T13:52:43.154Z,14.2
2023-01-26T13:53:59.275Z,13.3
2023-01-26T13:55:16.381Z,13.4
2023-01-26T13:56:33.486Z,12.2
2023-01-26T13:57:50.591Z,12
2023-01-26T13:59:07.696Z,12.4
2023-01-26T14:00:24.801Z,14
2023-01-26T14:01:41.906Z,14.9
2023-01-26T14:02:59.012Z,12.7
2023-01-26T14:04:16.117Z,12.5
2023-01-26T14:05:33.222Z,13.6
2023-01-26T14:06:50.328Z,12.1
2023-01-26T14:08:07.433Z,12.5
2023-01-26T14:09:24.538Z,12.1
2023-01-26T14:10:40.665Z,12.7
2023-01-26T14:11:56.786Z,13.2
2023-01-26T14:13:13.891Z,13.1
2023-01-26T14:14:30.018Z,11.4
2023-01-26T14:15:46.139Z,15
2023-01-26T14:17:03.244Z,13
2023-01-26T14:18:20.349Z,12.9
2023-01-26T14:19:37.455Z,11.5
2023-01-26T14:20:54.560Z,14.4
2023-01-26T14:22:11.665Z,13.2
2023-01-26T14:23:28.771Z,14.7
2023-01-26T14:24:45.876Z,11.8
2023-01-26T14:26:02.981Z,12.6
2023-01-26T14:27:20.086Z,12.6
2023-01-26T14:28:37.192Z,12.3
2023-01-26T14:29:54.297Z,12.5
2023-01-26T14:31:11.402Z,13.5
2023-01-26T14:32:27.523Z,11.6
2023-01-26T14:33:44.629Z,11.9
2023-01-26T14:35:01.734Z,11.5
2023-01-26T14:36:18.839Z,11.7
2023-01-26T14:37:35.944Z,12.6
2023-01-26T14:38:53.050Z,12.8
2023-01-26T14:40:10.155Z,13.8
2023-01-26T14:41:26.281Z,12.4
2023-01-26T14:43:59.508Z,11.1
2023-01-26T14:45:15.634Z,12.7
2023-01-26T14:46:31.755Z,11.7
2023-01-26T14:47:48.860Z,11.9
2023-01-26T14:49:05.966Z,12.9
2023-01-26T14:50:23.071Z,11.8
2023-01-26T14:51:40.176Z,12.4
2023-01-26T14:52:57.281Z,12.4
2023-01-26T14:54:14.386Z,12.2
2023-01-26T14:55:31.491Z,11.8
2023-01-26T14:56:48.596Z,11.9
2023-01-26T14:58:05.701Z,12.3
2023-01-26T14:59:22.807Z,12.2
2023-01-26T15:00:39.912Z,12.9
2023-01-26T15:01:56.033Z,12.1
2023-01-26T15:03:13.138Z,12.3
2023-01-26T15:04:30.243Z,12
2023-01-26T15:05:47.348Z,12.4
2023-01-26T15:07:04.454Z,11.9
2023-01-26T15:08:21.559Z,13.1
2023-01-26T15:09:38.664Z,11.7
2023-01-26T15:10:55.769Z,12.4
2023-01-26T15:12:11.896Z,12.3
2023-01-26T15:13:28.017Z,12.8
2023-01-26T15:14:45.122Z,13.1
2023-01-26T15:16:02.227Z,12.1
2023-01-26T15:17:19.332Z,14.4
2023-01-26T15:18:35.459Z,12.6
2023-01-26T15:19:51.580Z,12
2023-01-26T15:21:08.685Z,12.2
2023-01-26T15:22:25.790Z,12.8
2023-01-26T15:23:42.895Z,14
2023-01-26T15:25:00.000Z,13.1
2023-01-26T15:26:17.106Z,12.9
2023-01-26T15:27:34.211Z,14.5
2023-01-26T15:28:51.316Z,13.2
2023-01-26T15:30:08.421Z,13.6
2023-01-26T15:31:25.526Z,14.8
2023-01-26T15:32:42.632Z,12.4
2023-01-26T15:33:59.737Z,13.3
2023-01-26T15:35:16.842Z,14.9
2023-01-26T15:36:32.963Z,15.7
2023-01-26T15:37:50.068Z,15
2023-01-26T15:39:07.174Z,15.2
2023-01-26T15:40:24.279Z,14.5
2023-01-26T15:41:41.384Z,14.2
2023-01-26T15:42:58.489Z,13.8
2023-01-26T15:44:15.594Z,14.8
2023-01-26T15:45:31.720Z,14.6
2023-01-26T15:46:47.841Z,14.7
2023-01-26T15:48:04.947Z,16.3
2023-01-26T15:49:21.073Z,14.3
2023-01-26T15:50:37.194Z,14.3
2023-01-26T15:51:54.299Z,14.7
2023-01-26T15:53:11.405Z,15
2023-01-26T15:54:28.510Z,12.7
2023-01-26T15:55:45.615Z,13.3
2023-01-26T15:57:02.720Z,12.1
2023-01-26T15:58:19.825Z,12.5
2023-01-26T15:59:36.930Z,13.7
2023-01-26T16:00:54.036Z,12.7
2023-01-26T16:02:11.141Z,12.9
2023-01-26T16:03:28.246Z,11.6
2023-01-26T16:04:45.352Z,11.3
2023-01-26T16:06:02.457Z,11
2023-01-26T16:07:18.578Z,10.7
2023-01-26T16:08:35.683Z,11.5
2023-01-26T16:09:52.788Z,11.9
2023-01-26T16:11:09.894Z,11.7
2023-01-26T16:12:26.999Z,12.2
2023-01-26T16:13:44.104Z,10.4
2023-01-26T16:15:01.210Z,13.1
2023-01-26T16:16:17.336Z,11.6
2023-01-26T16:17:33.457Z,10.8
2023-01-26T16:18:50.563Z,11.2
2023-01-26T16:20:07.668Z,13
2023-01-26T16:21:23.794Z,12
2023-01-26T16:22:39.916Z,11.7
2023-01-26T16:23:57.021Z,11.9
2023-01-26T16:25:14.126Z,12.4
2023-01-26T16:26:31.231Z,13.3
2023-01-26T16:27:48.336Z,13.5
2023-01-26T16:29:05.442Z,12.9
2023-01-26T16:30:22.547Z,12.7
2023-01-26T16:31:39.653Z,12.6
2023-01-26T16:32:56.758Z,12.3
2023-01-26T16:34:13.863Z,12.2
2023-01-26T16:35:30.969Z,13.7
2023-01-26T16:36:48.074Z,11.9
2023-01-26T16:38:05.180Z,11.3
2023-01-26T16:39:21.301Z,11.7
2023-01-26T16:40:38.406Z,11.9
2023-01-26T16:41:55.512Z,13.4
2023-01-26T16:43:12.617Z,12.3
2023-01-26T16:44:29.722Z,11.4
2023-01-26T16:45:46.828Z,11.3
2023-01-26T16:47:03.933Z,10.8
2023-01-26T16:48:20.059Z,12.5
2023-01-26T16:49:36.181Z,11.3
2023-01-26T16:50:52.307Z,10.3
2023-01-26T16:52:08.427Z,11.1
2023-01-26T16:53:25.532Z,11
2023-01-26T16:54:42.637Z,11.1
2023-01-26T16:55:59.742Z,10.7
2023-01-26T16:57:16.848Z,11.8
2023-01-26T16:58:33.953Z,12.1
2023-01-26T16:59:51.058Z,11.1
2023-01-26T17:02:25.269Z,12.8
2023-01-26T17:03:42.374Z,12.5
2023-01-26T17:04:59.479Z,12.6
2023-01-26T17:06:16.584Z,12.2
2023-01-26T17:07:33.690Z,12.4
2023-01-26T17:08:50.795Z,13.2
2023-01-26T17:10:06.916Z,13.2
2023-01-26T17:11:24.022Z,12
2023-01-26T17:12:41.127Z,12.8
2023-01-26T17:13:58.232Z,13
2023-01-26T17:15:15.337Z,12.2
2023-01-26T17:16:32.443Z,12.6
2023-01-26T17:17:49.548Z,12.9
2023-01-26T17:19:06.653Z,13.2
2023-01-26T17:20:23.759Z,15.2
2023-01-26T17:21:40.864Z,11
2023-01-26T17:22:57.969Z,14
2023-01-26T17:24:15.074Z,12.8
2023-01-26T17:25:32.180Z,13.2
2023-01-26T17:26:48.306Z,12.4